sensor_id;sensor_type;location;lat;lon;timestamp;P1;durP1;ratioP1;P2;durP2;ratioP2
46713;SDS011;32445;51.376;10.874;2023-05-27T00:02:17;4.70;;;4.10;;
46713;SDS011;32445;51.376;10.874;2023-05-27T00:05:17;5.27;;;3.93;;
46713;SDS011;32445;51.376;10.874;2023-05-27T00:08:17;5.05;;;4.10;;
46713;SDS011;32445;51.376;10.874;2023-05-27T00:11:18;8.93;;;4.50;;
46713;SDS011;32445;51.376;10.874;2023-05-27T00:14:18;8.40;;;4.65;;
46713;SDS011;32445;51.376;10.874;2023-05-27T00:17:20;7.78;;;4.65;;
46713;SDS011;32445;51.376;10.874;2023-05-27T00:20:21;7.93;;;4.20;;
46713;SDS011;32445;51.376;10.874;2023-05-27T00:23:22;8.30;;;4.55;;
46713;SDS011;32445;51.376;10.874;2023-05-27T00:26:23;10.50;;;4.32;;
46713;SDS011;32445;51.376;10.874;2023-05-27T00:29:24;8.20;;;4.27;;
46713;SDS011;32445;51.376;10.874;2023-05-27T00:32:24;8.65;;;4.03;;
46713;SDS011;32445;51.376;10.874;2023-05-27T00:35:25;10.00;;;3.30;;
46713;SDS011;32445;51.376;10.874;2023-05-27T00:38:25;9.68;;;4.82;;
46713;SDS011;32445;51.376;10.874;2023-05-27T00:41:26;5.85;;;4.43;;
46713;SDS011;32445;51.376;10.874;2023-05-27T00:44:26;8.02;;;4.50;;
46713;SDS011;32445;51.376;10.874;2023-05-27T00:47:29;8.15;;;4.95;;
46713;SDS011;32445;51.376;10.874;2023-05-27T00:50:31;10.23;;;4.57;;
46713;SDS011;32445;51.376;10.874;2023-05-27T00:53:34;7.53;;;3.85;;
46713;SDS011;32445;51.376;10.874;2023-05-27T00:56:41;12.32;;;4.78;;
46713;SDS011;32445;51.376;10.874;2023-05-27T00:59:42;9.82;;;5.03;;
46713;SDS011;32445;51.376;10.874;2023-05-27T01:02:42;8.57;;;4.82;;
46713;SDS011;32445;51.376;10.874;2023-05-27T01:05:42;9.52;;;4.30;;
46713;SDS011;32445;51.376;10.874;2023-05-27T01:15:04;8.45;;;4.93;;
46713;SDS011;32445;51.376;10.874;2023-05-27T01:18:06;8.57;;;5.22;;
46713;SDS011;32445;51.376;10.874;2023-05-27T01:21:10;9.57;;;5.05;;
46713;SDS011;32445;51.376;10.874;2023-05-27T01:24:12;6.28;;;4.32;;
46713;SDS011;32445;51.376;10.874;2023-05-27T01:27:13;8.13;;;5.00;;
46713;SDS011;32445;51.376;10.874;2023-05-27T01:30:15;11.90;;;6.80;;
46713;SDS011;32445;51.376;10.874;2023-05-27T01:33:17;14.98;;;7.25;;
46713;SDS011;32445;51.376;10.874;2023-05-27T01:36:22;9.23;;;5.65;;
46713;SDS011;32445;51.376;10.874;2023-05-27T01:39:25;6.00;;;5.10;;
46713;SDS011;32445;51.376;10.874;2023-05-27T01:42:26;10.15;;;6.00;;
46713;SDS011;32445;51.376;10.874;2023-05-27T01:45:27;14.32;;;5.93;;
46713;SDS011;32445;51.376;10.874;2023-05-27T01:48:28;9.50;;;6.45;;
46713;SDS011;32445;51.376;10.874;2023-05-27T01:51:28;12.88;;;6.55;;
46713;SDS011;32445;51.376;10.874;2023-05-27T01:54:29;10.65;;;6.93;;
46713;SDS011;32445;51.376;10.874;2023-05-27T01:57:30;9.00;;;5.57;;
46713;SDS011;32445;51.376;10.874;2023-05-27T02:00:31;15.18;;;6.28;;
46713;SDS011;32445;51.376;10.874;2023-05-27T02:03:31;10.23;;;6.00;;
46713;SDS011;32445;51.376;10.874;2023-05-27T02:06:32;8.65;;;5.85;;
46713;SDS011;32445;51.376;10.874;2023-05-27T02:09:32;11.48;;;4.88;;
46713;SDS011;32445;51.376;10.874;2023-05-27T02:12:32;8.93;;;4.70;;
46713;SDS011;32445;51.376;10.874;2023-05-27T02:15:33;6.57;;;4.88;;
46713;SDS011;32445;51.376;10.874;2023-05-27T02:18:33;16.40;;;5.93;;
46713;SDS011;32445;51.376;10.874;2023-05-27T02:21:35;5.03;;;4.55;;
46713;SDS011;32445;51.376;10.874;2023-05-27T02:24:38;6.93;;;4.32;;
46713;SDS011;32445;51.376;10.874;2023-05-27T02:27:38;14.45;;;5.28;;
46713;SDS011;32445;51.376;10.874;2023-05-27T02:30:39;8.73;;;4.70;;
46713;SDS011;32445;51.376;10.874;2023-05-27T02:33:39;10.05;;;6.78;;
46713;SDS011;32445;51.376;10.874;2023-05-27T02:36:40;6.68;;;5.75;;
46713;SDS011;32445;51.376;10.874;2023-05-27T02:39:40;8.40;;;4.88;;
46713;SDS011;32445;51.376;10.874;2023-05-27T02:42:41;14.18;;;5.93;;
46713;SDS011;32445;51.376;10.874;2023-05-27T02:45:41;6.75;;;5.63;;
46713;SDS011;32445;51.376;10.874;2023-05-27T02:48:42;17.00;;;5.60;;
46713;SDS011;32445;51.376;10.874;2023-05-27T02:51:42;7.68;;;5.72;;
46713;SDS011;32445;51.376;10.874;2023-05-27T02:54:43;7.07;;;5.43;;
46713;SDS011;32445;51.376;10.874;2023-05-27T02:57:43;10.55;;;5.72;;
46713;SDS011;32445;51.376;10.874;2023-05-27T03:00:43;8.55;;;5.38;;
46713;SDS011;32445;51.376;10.874;2023-05-27T03:03:44;8.13;;;5.43;;
46713;SDS011;32445;51.376;10.874;2023-05-27T03:06:44;8.85;;;5.35;;
46713;SDS011;32445;51.376;10.874;2023-05-27T03:09:46;6.53;;;5.70;;
46713;SDS011;32445;51.376;10.874;2023-05-27T03:12:46;10.05;;;6.15;;
46713;SDS011;32445;51.376;10.874;2023-05-27T03:15:47;9.05;;;6.05;;
46713;SDS011;32445;51.376;10.874;2023-05-27T03:18:48;9.68;;;6.05;;
46713;SDS011;32445;51.376;10.874;2023-05-27T03:21:49;10.80;;;5.40;;
46713;SDS011;32445;51.376;10.874;2023-05-27T03:24:50;8.55;;;5.55;;
46713;SDS011;32445;51.376;10.874;2023-05-27T03:27:52;8.27;;;5.53;;
46713;SDS011;32445;51.376;10.874;2023-05-27T03:30:53;10.70;;;5.93;;
46713;SDS011;32445;51.376;10.874;2023-05-27T03:33:56;11.13;;;5.80;;
46713;SDS011;32445;51.376;10.874;2023-05-27T03:36:56;7.88;;;5.13;;
46713;SDS011;32445;51.376;10.874;2023-05-27T03:39:56;9.40;;;4.50;;
46713;SDS011;32445;51.376;10.874;2023-05-27T03:42:57;11.57;;;5.05;;
46713;SDS011;32445;51.376;10.874;2023-05-27T03:45:58;8.88;;;5.93;;
46713;SDS011;32445;51.376;10.874;2023-05-27T03:48:58;6.57;;;4.70;;
46713;SDS011;32445;51.376;10.874;2023-05-27T03:51:59;11.15;;;5.65;;
46713;SDS011;32445;51.376;10.874;2023-05-27T03:54:59;6.43;;;4.93;;
46713;SDS011;32445;51.376;10.874;2023-05-27T03:57:59;8.93;;;5.40;;
46713;SDS011;32445;51.376;10.874;2023-05-27T04:01:00;9.10;;;4.57;;
46713;SDS011;32445;51.376;10.874;2023-05-27T04:04:01;8.37;;;6.33;;
46713;SDS011;32445;51.376;10.874;2023-05-27T04:07:02;10.02;;;5.35;;
46713;SDS011;32445;51.376;10.874;2023-05-27T04:10:03;7.32;;;5.03;;
46713;SDS011;32445;51.376;10.874;2023-05-27T04:13:03;9.15;;;5.35;;
46713;SDS011;32445;51.376;10.874;2023-05-27T04:16:04;6.97;;;4.70;;
46713;SDS011;32445;51.376;10.874;2023-05-27T04:19:04;9.38;;;5.43;;
46713;SDS011;32445;51.376;10.874;2023-05-27T04:22:05;7.13;;;5.28;;
46713;SDS011;32445;51.376;10.874;2023-05-27T04:25:05;8.25;;;5.43;;
46713;SDS011;32445;51.376;10.874;2023-05-27T04:28:09;9.18;;;6.18;;
46713;SDS011;32445;51.376;10.874;2023-05-27T04:31:10;8.23;;;5.53;;
46713;SDS011;32445;51.376;10.874;2023-05-27T04:34:12;8.07;;;5.78;;
46713;SDS011;32445;51.376;10.874;2023-05-27T04:37:12;11.38;;;6.10;;
46713;SDS011;32445;51.376;10.874;2023-05-27T04:40:13;10.25;;;5.80;;
46713;SDS011;32445;51.376;10.874;2023-05-27T04:43:13;9.15;;;6.05;;
46713;SDS011;32445;51.376;10.874;2023-05-27T04:46:14;9.55;;;5.50;;
46713;SDS011;32445;51.376;10.874;2023-05-27T04:49:14;11.68;;;6.63;;
46713;SDS011;32445;51.376;10.874;2023-05-27T04:52:15;7.78;;;5.57;;
46713;SDS011;32445;51.376;10.874;2023-05-27T04:55:15;8.48;;;6.57;;
46713;SDS011;32445;51.376;10.874;2023-05-27T04:58:15;8.05;;;5.75;;
46713;SDS011;32445;51.376;10.874;2023-05-27T05:01:16;7.00;;;6.30;;
46713;SDS011;32445;51.376;10.874;2023-05-27T05:04:22;12.80;;;6.45;;
46713;SDS011;32445;51.376;10.874;2023-05-27T05:07:22;10.57;;;6.55;;
46713;SDS011;32445;51.376;10.874;2023-05-27T05:10:22;11.05;;;6.50;;
46713;SDS011;32445;51.376;10.874;2023-05-27T05:13:23;10.13;;;7.30;;
46713;SDS011;32445;51.376;10.874;2023-05-27T05:16:28;8.65;;;7.55;;
46713;SDS011;32445;51.376;10.874;2023-05-27T05:19:29;20.23;;;7.05;;
46713;SDS011;32445;51.376;10.874;2023-05-27T05:22:29;8.85;;;6.70;;
46713;SDS011;32445;51.376;10.874;2023-05-27T05:25:30;10.52;;;6.38;;
46713;SDS011;32445;51.376;10.874;2023-05-27T05:28:30;12.15;;;6.22;;
46713;SDS011;32445;51.376;10.874;2023-05-27T05:31:31;11.07;;;7.15;;
46713;SDS011;32445;51.376;10.874;2023-05-27T05:34:31;21.70;;;8.80;;
46713;SDS011;32445;51.376;10.874;2023-05-27T05:37:32;12.70;;;7.43;;
46713;SDS011;32445;51.376;10.874;2023-05-27T05:40:32;12.13;;;7.07;;
46713;SDS011;32445;51.376;10.874;2023-05-27T05:43:32;18.95;;;8.27;;
46713;SDS011;32445;51.376;10.874;2023-05-27T05:46:33;19.90;;;8.68;;
46713;SDS011;32445;51.376;10.874;2023-05-27T05:49:33;16.95;;;7.35;;
46713;SDS011;32445;51.376;10.874;2023-05-27T05:52:34;14.50;;;8.23;;
46713;SDS011;32445;51.376;10.874;2023-05-27T05:55:34;13.07;;;9.30;;
46713;SDS011;32445;51.376;10.874;2023-05-27T05:58:34;19.13;;;9.15;;
46713;SDS011;32445;51.376;10.874;2023-05-27T06:01:35;29.88;;;10.65;;
46713;SDS011;32445;51.376;10.874;2023-05-27T06:04:35;20.98;;;10.52;;
46713;SDS011;32445;51.376;10.874;2023-05-27T06:07:36;23.35;;;10.38;;
46713;SDS011;32445;51.376;10.874;2023-05-27T06:10:36;17.83;;;8.75;;
46713;SDS011;32445;51.376;10.874;2023-05-27T06:13:37;29.75;;;9.88;;
46713;SDS011;32445;51.376;10.874;2023-05-27T06:16:37;19.58;;;10.82;;
46713;SDS011;32445;51.376;10.874;2023-05-27T06:19:39;13.35;;;8.73;;
46713;SDS011;32445;51.376;10.874;2023-05-27T06:22:40;19.42;;;9.43;;
46713;SDS011;32445;51.376;10.874;2023-05-27T06:25:40;20.90;;;9.20;;
46713;SDS011;32445;51.376;10.874;2023-05-27T06:28:41;16.88;;;8.70;;
46713;SDS011;32445;51.376;10.874;2023-05-27T06:31:41;16.15;;;7.88;;
46713;SDS011;32445;51.376;10.874;2023-05-27T06:34:42;17.98;;;7.93;;
46713;SDS011;32445;51.376;10.874;2023-05-27T06:37:42;20.40;;;8.27;;
46713;SDS011;32445;51.376;10.874;2023-05-27T06:40:43;15.75;;;7.68;;
46713;SDS011;32445;51.376;10.874;2023-05-27T06:43:44;16.13;;;8.00;;
46713;SDS011;32445;51.376;10.874;2023-05-27T06:46:44;12.25;;;6.53;;
46713;SDS011;32445;51.376;10.874;2023-05-27T06:49:44;20.92;;;7.00;;
46713;SDS011;32445;51.376;10.874;2023-05-27T06:52:45;15.10;;;7.80;;
46713;SDS011;32445;51.376;10.874;2023-05-27T06:55:45;15.30;;;8.77;;
46713;SDS011;32445;51.376;10.874;2023-05-27T06:58:46;15.15;;;6.93;;
46713;SDS011;32445;51.376;10.874;2023-05-27T07:01:46;21.27;;;7.07;;
46713;SDS011;32445;51.376;10.874;2023-05-27T07:04:47;14.85;;;6.88;;
46713;SDS011;32445;51.376;10.874;2023-05-27T07:07:47;34.88;;;8.35;;
46713;SDS011;32445;51.376;10.874;2023-05-27T07:10:47;10.60;;;6.25;;
46713;SDS011;32445;51.376;10.874;2023-05-27T07:13:48;13.73;;;6.40;;
46713;SDS011;32445;51.376;10.874;2023-05-27T07:16:48;14.60;;;5.10;;
46713;SDS011;32445;51.376;10.874;2023-05-27T07:19:49;14.70;;;5.78;;
46713;SDS011;32445;51.376;10.874;2023-05-27T07:22:49;13.98;;;6.38;;
46713;SDS011;32445;51.376;10.874;2023-05-27T07:25:50;14.80;;;6.03;;
46713;SDS011;32445;51.376;10.874;2023-05-27T07:28:50;16.52;;;6.72;;
46713;SDS011;32445;51.376;10.874;2023-05-27T07:31:51;13.60;;;5.53;;
46713;SDS011;32445;51.376;10.874;2023-05-27T07:34:51;20.50;;;6.05;;
46713;SDS011;32445;51.376;10.874;2023-05-27T07:37:51;17.60;;;6.25;;
46713;SDS011;32445;51.376;10.874;2023-05-27T07:40:52;16.55;;;5.93;;
46713;SDS011;32445;51.376;10.874;2023-05-27T07:43:52;15.77;;;5.78;;
46713;SDS011;32445;51.376;10.874;2023-05-27T07:46:53;12.60;;;6.05;;
46713;SDS011;32445;51.376;10.874;2023-05-27T07:49:53;21.35;;;6.68;;
46713;SDS011;32445;51.376;10.874;2023-05-27T07:52:54;17.02;;;6.13;;
46713;SDS011;32445;51.376;10.874;2023-05-27T07:55:54;14.10;;;7.35;;
46713;SDS011;32445;51.376;10.874;2023-05-27T07:58:54;12.88;;;6.10;;
46713;SDS011;32445;51.376;10.874;2023-05-27T08:01:55;22.48;;;6.25;;
46713;SDS011;32445;51.376;10.874;2023-05-27T08:04:55;22.45;;;7.10;;
46713;SDS011;32445;51.376;10.874;2023-05-27T08:07:56;14.63;;;6.72;;
46713;SDS011;32445;51.376;10.874;2023-05-27T08:10:56;21.42;;;5.85;;
46713;SDS011;32445;51.376;10.874;2023-05-27T08:13:57;15.93;;;6.03;;
46713;SDS011;32445;51.376;10.874;2023-05-27T08:16:57;33.15;;;7.28;;
46713;SDS011;32445;51.376;10.874;2023-05-27T08:19:58;8.57;;;4.40;;
46713;SDS011;32445;51.376;10.874;2023-05-27T08:22:58;14.52;;;5.13;;
46713;SDS011;32445;51.376;10.874;2023-05-27T08:25:58;9.43;;;4.32;;
46713;SDS011;32445;51.376;10.874;2023-05-27T08:28:59;17.88;;;5.38;;
46713;SDS011;32445;51.376;10.874;2023-05-27T08:31:59;17.98;;;5.20;;
46713;SDS011;32445;51.376;10.874;2023-05-27T08:35:00;16.00;;;5.50;;
46713;SDS011;32445;51.376;10.874;2023-05-27T08:38:00;16.87;;;4.53;;
46713;SDS011;32445;51.376;10.874;2023-05-27T08:41:01;14.07;;;5.20;;
46713;SDS011;32445;51.376;10.874;2023-05-27T08:44:02;18.30;;;6.57;;
46713;SDS011;32445;51.376;10.874;2023-05-27T08:47:03;14.60;;;5.47;;
46713;SDS011;32445;51.376;10.874;2023-05-27T08:50:04;12.07;;;4.75;;
46713;SDS011;32445;51.376;10.874;2023-05-27T08:53:07;21.88;;;5.78;;
46713;SDS011;32445;51.376;10.874;2023-05-27T09:02:12;19.70;;;5.50;;
46713;SDS011;32445;51.376;10.874;2023-05-27T09:05:13;9.43;;;4.47;;
46713;SDS011;32445;51.376;10.874;2023-05-27T09:08:15;13.77;;;5.15;;
46713;SDS011;32445;51.376;10.874;2023-05-27T09:11:20;13.23;;;5.63;;
46713;SDS011;32445;51.376;10.874;2023-05-27T09:14:22;18.10;;;5.95;;
46713;SDS011;32445;51.376;10.874;2023-05-27T09:17:22;8.87;;;4.60;;
46713;SDS011;32445;51.376;10.874;2023-05-27T09:20:24;12.73;;;5.07;;
46713;SDS011;32445;51.376;10.874;2023-05-27T09:23:26;12.90;;;5.05;;
46713;SDS011;32445;51.376;10.874;2023-05-27T09:26:27;13.83;;;6.23;;
46713;SDS011;32445;51.376;10.874;2023-05-27T09:29:27;10.00;;;4.47;;
46713;SDS011;32445;51.376;10.874;2023-05-27T09:32:30;14.07;;;4.47;;
46713;SDS011;32445;51.376;10.874;2023-05-27T09:35:31;10.43;;;4.72;;
46713;SDS011;32445;51.376;10.874;2023-05-27T09:38:38;9.30;;;4.13;;
46713;SDS011;32445;51.376;10.874;2023-05-27T09:41:38;13.10;;;5.17;;
46713;SDS011;32445;51.376;10.874;2023-05-27T09:44:40;9.90;;;5.72;;
46713;SDS011;32445;51.376;10.874;2023-05-27T09:47:47;8.63;;;4.60;;
46713;SDS011;32445;51.376;10.874;2023-05-27T09:50:52;9.15;;;5.10;;
46713;SDS011;32445;51.376;10.874;2023-05-27T09:53:54;13.50;;;4.57;;
46713;SDS011;32445;51.376;10.874;2023-05-27T09:56:57;10.63;;;5.13;;
46713;SDS011;32445;51.376;10.874;2023-05-27T09:59:59;11.25;;;4.65;;
46713;SDS011;32445;51.376;10.874;2023-05-27T10:03:00;7.47;;;4.38;;
46713;SDS011;32445;51.376;10.874;2023-05-27T10:06:02;11.50;;;4.05;;
46713;SDS011;32445;51.376;10.874;2023-05-27T10:09:02;15.10;;;5.33;;
46713;SDS011;32445;51.376;10.874;2023-05-27T10:12:04;12.00;;;4.53;;
46713;SDS011;32445;51.376;10.874;2023-05-27T10:15:05;18.70;;;4.93;;
46713;SDS011;32445;51.376;10.874;2023-05-27T10:21:17;10.98;;;4.55;;
46713;SDS011;32445;51.376;10.874;2023-05-27T10:24:30;12.98;;;4.40;;
46713;SDS011;32445;51.376;10.874;2023-05-27T10:27:41;19.20;;;4.78;;
46713;SDS011;32445;51.376;10.874;2023-05-27T10:30:47;6.15;;;4.05;;
46713;SDS011;32445;51.376;10.874;2023-05-27T10:33:49;8.93;;;4.50;;
46713;SDS011;32445;51.376;10.874;2023-05-27T10:36:58;14.68;;;5.30;;
46713;SDS011;32445;51.376;10.874;2023-05-27T10:39:59;12.57;;;4.28;;
46713;SDS011;32445;51.376;10.874;2023-05-27T10:43:01;9.05;;;3.85;;
46713;SDS011;32445;51.376;10.874;2023-05-27T10:46:09;10.95;;;4.43;;
46713;SDS011;32445;51.376;10.874;2023-05-27T10:49:24;10.15;;;4.50;;
46713;SDS011;32445;51.376;10.874;2023-05-27T10:52:25;15.25;;;4.93;;
46713;SDS011;32445;51.376;10.874;2023-05-27T10:55:31;11.95;;;4.15;;
46713;SDS011;32445;51.376;10.874;2023-05-27T10:58:33;13.57;;;4.80;;
46713;SDS011;32445;51.376;10.874;2023-05-27T11:01:35;14.05;;;3.80;;
46713;SDS011;32445;51.376;10.874;2023-05-27T11:04:37;13.45;;;4.50;;
46713;SDS011;32445;51.376;10.874;2023-05-27T11:07:38;7.30;;;4.63;;
46713;SDS011;32445;51.376;10.874;2023-05-27T11:10:40;9.32;;;4.30;;
46713;SDS011;32445;51.376;10.874;2023-05-27T11:13:43;9.65;;;3.75;;
46713;SDS011;32445;51.376;10.874;2023-05-27T11:16:45;8.30;;;4.15;;
46713;SDS011;32445;51.376;10.874;2023-05-27T11:19:53;8.60;;;4.18;;
46713;SDS011;32445;51.376;10.874;2023-05-27T11:22:54;5.38;;;3.92;;
46713;SDS011;32445;51.376;10.874;2023-05-27T11:25:55;9.37;;;4.20;;
46713;SDS011;32445;51.376;10.874;2023-05-27T11:28:57;11.77;;;3.63;;
46713;SDS011;32445;51.376;10.874;2023-05-27T11:31:58;15.07;;;4.00;;
46713;SDS011;32445;51.376;10.874;2023-05-27T11:38:03;13.93;;;3.70;;
46713;SDS011;32445;51.376;10.874;2023-05-27T11:41:06;5.82;;;2.83;;
46713;SDS011;32445;51.376;10.874;2023-05-27T11:44:07;7.75;;;3.55;;
46713;SDS011;32445;51.376;10.874;2023-05-27T11:47:08;7.53;;;3.97;;
46713;SDS011;32445;51.376;10.874;2023-05-27T11:50:14;6.63;;;2.90;;
46713;SDS011;32445;51.376;10.874;2023-05-27T11:53:18;10.25;;;3.30;;
46713;SDS011;32445;51.376;10.874;2023-05-27T11:56:18;9.98;;;3.80;;
46713;SDS011;32445;51.376;10.874;2023-05-27T11:59:21;5.55;;;2.83;;
46713;SDS011;32445;51.376;10.874;2023-05-27T12:02:22;8.75;;;3.38;;
46713;SDS011;32445;51.376;10.874;2023-05-27T12:05:22;7.00;;;3.43;;
46713;SDS011;32445;51.376;10.874;2023-05-27T12:08:23;13.00;;;4.28;;
46713;SDS011;32445;51.376;10.874;2023-05-27T12:11:24;13.25;;;3.65;;
46713;SDS011;32445;51.376;10.874;2023-05-27T12:14:25;7.82;;;3.85;;
46713;SDS011;32445;51.376;10.874;2023-05-27T12:17:25;12.68;;;3.90;;
46713;SDS011;32445;51.376;10.874;2023-05-27T12:20:28;7.63;;;3.55;;
46713;SDS011;32445;51.376;10.874;2023-05-27T12:23:28;10.10;;;3.30;;
46713;SDS011;32445;51.376;10.874;2023-05-27T12:26:29;9.13;;;3.50;;
46713;SDS011;32445;51.376;10.874;2023-05-27T12:29:30;9.40;;;3.88;;
46713;SDS011;32445;51.376;10.874;2023-05-27T12:35:30;8.23;;;4.10;;
46713;SDS011;32445;51.376;10.874;2023-05-27T12:41:32;6.80;;;3.77;;
46713;SDS011;32445;51.376;10.874;2023-05-27T12:47:33;10.07;;;3.60;;
46713;SDS011;32445;51.376;10.874;2023-05-27T12:53:36;10.03;;;3.80;;
46713;SDS011;32445;51.376;10.874;2023-05-27T12:56:40;9.15;;;3.38;;
46713;SDS011;32445;51.376;10.874;2023-05-27T12:59:41;7.18;;;3.20;;
46713;SDS011;32445;51.376;10.874;2023-05-27T13:05:43;10.50;;;3.53;;
46713;SDS011;32445;51.376;10.874;2023-05-27T13:11:43;8.83;;;3.77;;
46713;SDS011;32445;51.376;10.874;2023-05-27T13:17:44;6.97;;;3.10;;
46713;SDS011;32445;51.376;10.874;2023-05-27T13:20:46;5.88;;;2.85;;
46713;SDS011;32445;51.376;10.874;2023-05-27T13:26:47;3.60;;;2.47;;
46713;SDS011;32445;51.376;10.874;2023-05-27T13:32:48;10.17;;;3.57;;
46713;SDS011;32445;51.376;10.874;2023-05-27T13:35:48;6.00;;;3.30;;
46713;SDS011;32445;51.376;10.874;2023-05-27T13:38:49;7.35;;;3.65;;
46713;SDS011;32445;51.376;10.874;2023-05-27T13:41:50;6.03;;;3.22;;
46713;SDS011;32445;51.376;10.874;2023-05-27T13:44:50;8.18;;;3.60;;
46713;SDS011;32445;51.376;10.874;2023-05-27T13:47:50;8.35;;;3.65;;
46713;SDS011;32445;51.376;10.874;2023-05-27T13:50:51;5.65;;;2.88;;
46713;SDS011;32445;51.376;10.874;2023-05-27T13:53:51;5.50;;;3.13;;
46713;SDS011;32445;51.376;10.874;2023-05-27T13:56:52;8.63;;;3.78;;
46713;SDS011;32445;51.376;10.874;2023-05-27T13:59:53;6.28;;;3.00;;
46713;SDS011;32445;51.376;10.874;2023-05-27T14:02:53;6.22;;;3.63;;
46713;SDS011;32445;51.376;10.874;2023-05-27T14:05:54;9.43;;;3.80;;
46713;SDS011;32445;51.376;10.874;2023-05-27T14:08:55;8.02;;;2.97;;
46713;SDS011;32445;51.376;10.874;2023-05-27T14:11:55;6.18;;;4.05;;
46713;SDS011;32445;51.376;10.874;2023-05-27T14:14:57;10.70;;;4.28;;
46713;SDS011;32445;51.376;10.874;2023-05-27T14:17:57;6.50;;;2.75;;
46713;SDS011;32445;51.376;10.874;2023-05-27T14:21:00;6.45;;;3.33;;
46713;SDS011;32445;51.376;10.874;2023-05-27T14:24:01;6.30;;;2.85;;
46713;SDS011;32445;51.376;10.874;2023-05-27T14:27:01;7.65;;;3.35;;
46713;SDS011;32445;51.376;10.874;2023-05-27T14:30:02;5.20;;;2.70;;
46713;SDS011;32445;51.376;10.874;2023-05-27T14:33:03;7.25;;;3.75;;
46713;SDS011;32445;51.376;10.874;2023-05-27T14:36:06;4.80;;;3.28;;
46713;SDS011;32445;51.376;10.874;2023-05-27T14:39:07;7.53;;;3.17;;
46713;SDS011;32445;51.376;10.874;2023-05-27T14:42:08;5.57;;;2.97;;
46713;SDS011;32445;51.376;10.874;2023-05-27T14:45:08;7.30;;;2.95;;
46713;SDS011;32445;51.376;10.874;2023-05-27T14:48:09;7.53;;;2.92;;
46713;SDS011;32445;51.376;10.874;2023-05-27T14:51:09;7.80;;;3.42;;
46713;SDS011;32445;51.376;10.874;2023-05-27T14:54:10;5.53;;;2.75;;
46713;SDS011;32445;51.376;10.874;2023-05-27T14:57:10;7.63;;;4.43;;
46713;SDS011;32445;51.376;10.874;2023-05-27T15:00:11;8.88;;;3.22;;
46713;SDS011;32445;51.376;10.874;2023-05-27T15:03:12;5.53;;;3.40;;
46713;SDS011;32445;51.376;10.874;2023-05-27T15:06:13;5.05;;;2.15;;
46713;SDS011;32445;51.376;10.874;2023-05-27T15:09:13;4.85;;;2.47;;
46713;SDS011;32445;51.376;10.874;2023-05-27T15:12:14;5.07;;;2.85;;
46713;SDS011;32445;51.376;10.874;2023-05-27T15:15:18;5.30;;;3.60;;
46713;SDS011;32445;51.376;10.874;2023-05-27T15:18:20;5.22;;;2.60;;
46713;SDS011;32445;51.376;10.874;2023-05-27T15:21:21;4.95;;;2.95;;
46713;SDS011;32445;51.376;10.874;2023-05-27T15:24:21;6.68;;;3.03;;
46713;SDS011;32445;51.376;10.874;2023-05-27T15:27:22;5.80;;;2.55;;
46713;SDS011;32445;51.376;10.874;2023-05-27T15:30:22;6.28;;;2.65;;
46713;SDS011;32445;51.376;10.874;2023-05-27T15:33:23;6.50;;;2.50;;
46713;SDS011;32445;51.376;10.874;2023-05-27T15:36:23;9.48;;;2.80;;
46713;SDS011;32445;51.376;10.874;2023-05-27T15:39:23;4.82;;;2.70;;
46713;SDS011;32445;51.376;10.874;2023-05-27T15:42:24;8.20;;;3.28;;
46713;SDS011;32445;51.376;10.874;2023-05-27T15:45:25;5.90;;;2.53;;
46713;SDS011;32445;51.376;10.874;2023-05-27T15:48:25;5.22;;;2.78;;
46713;SDS011;32445;51.376;10.874;2023-05-27T15:51:26;4.15;;;2.22;;
46713;SDS011;32445;51.376;10.874;2023-05-27T15:54:26;6.60;;;2.67;;
46713;SDS011;32445;51.376;10.874;2023-05-27T15:57:26;4.63;;;2.22;;
46713;SDS011;32445;51.376;10.874;2023-05-27T16:00:27;4.75;;;2.45;;
46713;SDS011;32445;51.376;10.874;2023-05-27T16:03:28;5.32;;;2.65;;
46713;SDS011;32445;51.376;10.874;2023-05-27T16:06:28;4.97;;;2.67;;
46713;SDS011;32445;51.376;10.874;2023-05-27T16:09:29;4.88;;;2.53;;
46713;SDS011;32445;51.376;10.874;2023-05-27T16:12:30;5.60;;;2.70;;
46713;SDS011;32445;51.376;10.874;2023-05-27T16:15:30;6.07;;;2.38;;
46713;SDS011;32445;51.376;10.874;2023-05-27T16:18:31;4.57;;;2.65;;
46713;SDS011;32445;51.376;10.874;2023-05-27T16:21:31;5.80;;;2.78;;
46713;SDS011;32445;51.376;10.874;2023-05-27T16:24:31;5.40;;;2.25;;
46713;SDS011;32445;51.376;10.874;2023-05-27T16:27:32;5.57;;;2.13;;
46713;SDS011;32445;51.376;10.874;2023-05-27T16:30:32;4.55;;;2.67;;
46713;SDS011;32445;51.376;10.874;2023-05-27T16:33:33;5.75;;;2.00;;
46713;SDS011;32445;51.376;10.874;2023-05-27T16:36:33;6.75;;;2.88;;
46713;SDS011;32445;51.376;10.874;2023-05-27T16:39:34;2.90;;;2.10;;
46713;SDS011;32445;51.376;10.874;2023-05-27T16:42:34;4.05;;;2.22;;
46713;SDS011;32445;51.376;10.874;2023-05-27T16:45:35;5.47;;;2.40;;
46713;SDS011;32445;51.376;10.874;2023-05-27T16:48:36;3.80;;;2.20;;
46713;SDS011;32445;51.376;10.874;2023-05-27T16:51:37;3.25;;;2.00;;
46713;SDS011;32445;51.376;10.874;2023-05-27T16:54:37;6.43;;;2.13;;
46713;SDS011;32445;51.376;10.874;2023-05-27T16:57:37;4.18;;;1.65;;
46713;SDS011;32445;51.376;10.874;2023-05-27T17:00:38;3.85;;;1.85;;
46713;SDS011;32445;51.376;10.874;2023-05-27T17:03:38;6.97;;;2.47;;
46713;SDS011;32445;51.376;10.874;2023-05-27T17:06:39;5.15;;;2.40;;
46713;SDS011;32445;51.376;10.874;2023-05-27T17:09:39;4.32;;;2.88;;
46713;SDS011;32445;51.376;10.874;2023-05-27T17:12:40;8.40;;;7.05;;
46713;SDS011;32445;51.376;10.874;2023-05-27T17:15:40;19.20;;;16.83;;
46713;SDS011;32445;51.376;10.874;2023-05-27T17:18:41;10.98;;;9.95;;
46713;SDS011;32445;51.376;10.874;2023-05-27T17:21:42;17.02;;;14.52;;
46713;SDS011;32445;51.376;10.874;2023-05-27T17:24:42;11.10;;;7.70;;
46713;SDS011;32445;51.376;10.874;2023-05-27T17:27:42;9.23;;;3.15;;
46713;SDS011;32445;51.376;10.874;2023-05-27T17:30:43;5.38;;;2.40;;
46713;SDS011;32445;51.376;10.874;2023-05-27T17:33:43;5.72;;;2.15;;
46713;SDS011;32445;51.376;10.874;2023-05-27T17:36:43;8.80;;;2.20;;
46713;SDS011;32445;51.376;10.874;2023-05-27T17:39:44;3.50;;;2.00;;
46713;SDS011;32445;51.376;10.874;2023-05-27T17:42:44;5.78;;;2.10;;
46713;SDS011;32445;51.376;10.874;2023-05-27T17:45:45;5.25;;;2.17;;
46713;SDS011;32445;51.376;10.874;2023-05-27T17:51:46;2.67;;;1.30;;
46713;SDS011;32445;51.376;10.874;2023-05-27T17:57:46;5.30;;;1.83;;
46713;SDS011;32445;51.376;10.874;2023-05-27T18:00:48;3.55;;;1.67;;
46713;SDS011;32445;51.376;10.874;2023-05-27T18:06:49;3.13;;;1.60;;
46713;SDS011;32445;51.376;10.874;2023-05-27T18:12:49;3.63;;;2.57;;
46713;SDS011;32445;51.376;10.874;2023-05-27T18:15:54;3.60;;;2.00;;
46713;SDS011;32445;51.376;10.874;2023-05-27T18:18:55;4.28;;;2.25;;
46713;SDS011;32445;51.376;10.874;2023-05-27T18:21:55;3.45;;;1.70;;
46713;SDS011;32445;51.376;10.874;2023-05-27T18:27:56;4.03;;;3.63;;
46713;SDS011;32445;51.376;10.874;2023-05-27T18:30:56;7.28;;;6.43;;
46713;SDS011;32445;51.376;10.874;2023-05-27T18:36:57;2.30;;;1.97;;
46713;SDS011;32445;51.376;10.874;2023-05-27T18:42:58;4.28;;;2.45;;
46713;SDS011;32445;51.376;10.874;2023-05-27T18:45:58;2.75;;;2.00;;
46713;SDS011;32445;51.376;10.874;2023-05-27T18:48:59;3.67;;;2.20;;
46713;SDS011;32445;51.376;10.874;2023-05-27T18:51:59;4.13;;;2.13;;
46713;SDS011;32445;51.376;10.874;2023-05-27T18:55:00;3.00;;;2.20;;